sensor_id;sensor_type;location;lat;lon;timestamp;temperature;humidity
40454;DHT22;26160;51.858;4.398;2022-10-16T00:01:27;14.50;99.90
40454;DHT22;26160;51.858;4.398;2022-10-16T00:03:55;14.60;99.90
40454;DHT22;26160;51.858;4.398;2022-10-16T00:06:25;14.50;99.90
40454;DHT22;26160;51.858;4.398;2022-10-16T00:08:52;14.60;99.90
40454;DHT22;26160;51.858;4.398;2022-10-16T00:11:27;14.50;99.90
40454;DHT22;26160;51.858;4.398;2022-10-16T00:13:59;14.60;99.90
40454;DHT22;26160;51.858;4.398;2022-10-16T00:16:26;14.60;99.90
40454;DHT22;26160;51.858;4.398;2022-10-16T00:18:53;14.60;99.90
40454;DHT22;26160;51.858;4.398;2022-10-16T00:21:22;14.40;99.90
40454;DHT22;26160;51.858;4.398;2022-10-16T00:24:00;14.40;99.90
40454;DHT22;26160;51.858;4.398;2022-10-16T00:42:59;13.90;99.90
40454;DHT22;26160;51.858;4.398;2022-10-16T00:51:39;13.70;99.90
40454;DHT22;26160;51.858;4.398;2022-10-16T01:04:36;13.60;99.90
40454;DHT22;26160;51.858;4.398;2022-10-16T01:18:34;13.40;99.90
40454;DHT22;26160;51.858;4.398;2022-10-16T01:21:07;13.40;99.90
40454;DHT22;26160;51.858;4.398;2022-10-16T01:23:48;13.30;99.90
40454;DHT22;26160;51.858;4.398;2022-10-16T01:29:27;13.30;99.90
40454;DHT22;26160;51.858;4.398;2022-10-16T01:32:00;13.30;99.90
40454;DHT22;26160;51.858;4.398;2022-10-16T01:34:58;13.20;99.90
40454;DHT22;26160;51.858;4.398;2022-10-16T01:40:26;13.20;99.90
40454;DHT22;26160;51.858;4.398;2022-10-16T01:42:58;13.20;99.90
40454;DHT22;26160;51.858;4.398;2022-10-16T01:45:29;13.20;99.90
40454;DHT22;26160;51.858;4.398;2022-10-16T01:47:58;13.20;99.90
40454;DHT22;26160;51.858;4.398;2022-10-16T01:50:27;13.20;99.90
40454;DHT22;26160;51.858;4.398;2022-10-16T01:52:56;13.20;99.90
40454;DHT22;26160;51.858;4.398;2022-10-16T01:55:29;13.30;99.90
40454;DHT22;26160;51.858;4.398;2022-10-16T01:57:58;13.30;99.90
40454;DHT22;26160;51.858;4.398;2022-10-16T02:00:26;13.30;99.90
40454;DHT22;26160;51.858;4.398;2022-10-16T02:02:55;13.40;99.90
40454;DHT22;26160;51.858;4.398;2022-10-16T02:05:36;13.40;99.90
40454;DHT22;26160;51.858;4.398;2022-10-16T02:08:04;13.40;99.90
40454;DHT22;26160;51.858;4.398;2022-10-16T02:10:35;13.40;99.90
40454;DHT22;26160;51.858;4.398;2022-10-16T02:13:29;13.50;99.90
40454;DHT22;26160;51.858;4.398;2022-10-16T02:15:57;13.50;99.90
40454;DHT22;26160;51.858;4.398;2022-10-16T02:18:26;13.60;99.90
40454;DHT22;26160;51.858;4.398;2022-10-16T02:29:36;13.60;99.90
40454;DHT22;26160;51.858;4.398;2022-10-16T02:32:06;13.60;99.90
40454;DHT22;26160;51.858;4.398;2022-10-16T02:34:35;13.70;99.90
40454;DHT22;26160;51.858;4.398;2022-10-16T02:37:04;13.60;99.90
40454;DHT22;26160;51.858;4.398;2022-10-16T02:39:38;13.60;99.90
40454;DHT22;26160;51.858;4.398;2022-10-16T02:42:28;13.60;99.90
40454;DHT22;26160;51.858;4.398;2022-10-16T02:44:55;13.60;99.90
40454;DHT22;26160;51.858;4.398;2022-10-16T02:47:21;13.70;99.90
40454;DHT22;26160;51.858;4.398;2022-10-16T02:49:47;13.60;99.90
40454;DHT22;26160;51.858;4.398;2022-10-16T02:52:14;13.50;99.90
40454;DHT22;26160;51.858;4.398;2022-10-16T02:54:42;13.50;99.90
40454;DHT22;26160;51.858;4.398;2022-10-16T02:57:20;13.50;99.90
40454;DHT22;26160;51.858;4.398;2022-10-16T02:59:55;13.50;99.90
40454;DHT22;26160;51.858;4.398;2022-10-16T03:02:25;13.40;99.90
40454;DHT22;26160;51.858;4.398;2022-10-16T03:04:53;13.40;99.90
40454;DHT22;26160;51.858;4.398;2022-10-16T03:07:25;13.40;99.90
40454;DHT22;26160;51.858;4.398;2022-10-16T03:09:52;13.40;99.90
40454;DHT22;26160;51.858;4.398;2022-10-16T03:12:19;13.30;99.90
40454;DHT22;26160;51.858;4.398;2022-10-16T03:17:31;13.30;99.90
40454;DHT22;26160;51.858;4.398;2022-10-16T03:19:57;13.30;99.90
40454;DHT22;26160;51.858;4.398;2022-10-16T03:22:24;13.30;99.90
40454;DHT22;26160;51.858;4.398;2022-10-16T03:24:50;13.30;99.90
40454;DHT22;26160;51.858;4.398;2022-10-16T03:27:17;13.30;99.90
40454;DHT22;26160;51.858;4.398;2022-10-16T03:29:45;13.30;99.90
40454;DHT22;26160;51.858;4.398;2022-10-16T03:32:12;13.30;99.90
40454;DHT22;26160;51.858;4.398;2022-10-16T03:34:40;13.20;99.90
40454;DHT22;26160;51.858;4.398;2022-10-16T03:37:14;13.20;99.90
40454;DHT22;26160;51.858;4.398;2022-10-16T03:39:40;13.20;99.90
40454;DHT22;26160;51.858;4.398;2022-10-16T03:42:07;13.20;99.90
40454;DHT22;26160;51.858;4.398;2022-10-16T03:44:34;13.20;99.90
40454;DHT22;26160;51.858;4.398;2022-10-16T03:47:01;13.20;99.90
40454;DHT22;26160;51.858;4.398;2022-10-16T03:49:33;13.20;99.90
40454;DHT22;26160;51.858;4.398;2022-10-16T03:52:09;13.20;99.90
40454;DHT22;26160;51.858;4.398;2022-10-16T03:54:36;13.10;99.90
40454;DHT22;26160;51.858;4.398;2022-10-16T03:57:03;13.10;99.90
40454;DHT22;26160;51.858;4.398;2022-10-16T03:59:35;13.10;99.90
40454;DHT22;26160;51.858;4.398;2022-10-16T04:02:13;13.10;99.90
40454;DHT22;26160;51.858;4.398;2022-10-16T04:04:46;13.10;99.90
40454;DHT22;26160;51.858;4.398;2022-10-16T04:07:15;13.00;99.90
40454;DHT22;26160;51.858;4.398;2022-10-16T04:09:45;13.00;99.90
40454;DHT22;26160;51.858;4.398;2022-10-16T04:12:16;13.00;99.90
40454;DHT22;26160;51.858;4.398;2022-10-16T04:14:44;13.00;99.90
40454;DHT22;26160;51.858;4.398;2022-10-16T04:17:11;12.90;99.90
40454;DHT22;26160;51.858;4.398;2022-10-16T04:19:39;13.00;99.90
40454;DHT22;26160;51.858;4.398;2022-10-16T04:22:05;12.90;99.90
40454;DHT22;26160;51.858;4.398;2022-10-16T04:24:31;12.90;99.90
40454;DHT22;26160;51.858;4.398;2022-10-16T04:26:59;12.90;99.90
40454;DHT22;26160;51.858;4.398;2022-10-16T04:29:30;12.90;99.90
40454;DHT22;26160;51.858;4.398;2022-10-16T04:32:25;12.90;99.90
40454;DHT22;26160;51.858;4.398;2022-10-16T04:34:59;12.90;99.90
40454;DHT22;26160;51.858;4.398;2022-10-16T04:37:28;12.90;99.90
40454;DHT22;26160;51.858;4.398;2022-10-16T04:39:55;12.90;99.90
40454;DHT22;26160;51.858;4.398;2022-10-16T04:42:21;12.90;99.90
40454;DHT22;26160;51.858;4.398;2022-10-16T04:44:48;12.90;99.90
40454;DHT22;26160;51.858;4.398;2022-10-16T04:47:15;13.00;99.90
40454;DHT22;26160;51.858;4.398;2022-10-16T04:49:44;13.00;99.90
40454;DHT22;26160;51.858;4.398;2022-10-16T04:52:12;13.10;99.90
40454;DHT22;26160;51.858;4.398;2022-10-16T04:54:39;13.10;99.90
40454;DHT22;26160;51.858;4.398;2022-10-16T04:57:14;13.10;99.90
40454;DHT22;26160;51.858;4.398;2022-10-16T04:59:41;13.20;99.90
40454;DHT22;26160;51.858;4.398;2022-10-16T05:02:09;13.20;99.90
40454;DHT22;26160;51.858;4.398;2022-10-16T05:04:46;13.30;99.90
40454;DHT22;26160;51.858;4.398;2022-10-16T05:07:17;13.30;99.90
40454;DHT22;26160;51.858;4.398;2022-10-16T05:10:02;13.30;99.90
40454;DHT22;26160;51.858;4.398;2022-10-16T05:12:36;13.40;99.90
40454;DHT22;26160;51.858;4.398;2022-10-16T05:15:08;13.40;99.90
40454;DHT22;26160;51.858;4.398;2022-10-16T05:17:36;13.40;99.90
40454;DHT22;26160;51.858;4.398;2022-10-16T05:20:04;13.40;99.90
40454;DHT22;26160;51.858;4.398;2022-10-16T05:22:44;13.50;99.90
40454;DHT22;26160;51.858;4.398;2022-10-16T05:25:15;13.50;99.90
40454;DHT22;26160;51.858;4.398;2022-10-16T05:27:42;13.50;99.90
40454;DHT22;26160;51.858;4.398;2022-10-16T05:30:10;13.50;99.90
40454;DHT22;26160;51.858;4.398;2022-10-16T05:32:37;13.50;99.90
40454;DHT22;26160;51.858;4.398;2022-10-16T05:35:07;13.50;99.90
40454;DHT22;26160;51.858;4.398;2022-10-16T05:37:36;13.50;99.90
40454;DHT22;26160;51.858;4.398;2022-10-16T05:40:04;13.50;99.90
40454;DHT22;26160;51.858;4.398;2022-10-16T05:42:39;13.50;99.90
40454;DHT22;26160;51.858;4.398;2022-10-16T05:45:17;13.50;99.90
40454;DHT22;26160;51.858;4.398;2022-10-16T05:47:46;13.60;99.90
40454;DHT22;26160;51.858;4.398;2022-10-16T05:50:12;13.50;99.90
40454;DHT22;26160;51.858;4.398;2022-10-16T05:52:38;13.50;99.90
40454;DHT22;26160;51.858;4.398;2022-10-16T05:55:05;13.50;99.90
40454;DHT22;26160;51.858;4.398;2022-10-16T05:57:31;13.60;99.90
40454;DHT22;26160;51.858;4.398;2022-10-16T05:59:58;13.50;99.90
40454;DHT22;26160;51.858;4.398;2022-10-16T06:02:24;13.50;99.90
40454;DHT22;26160;51.858;4.398;2022-10-16T06:04:56;13.40;99.90
40454;DHT22;26160;51.858;4.398;2022-10-16T06:07:49;13.30;99.90
40454;DHT22;26160;51.858;4.398;2022-10-16T06:10:42;13.30;99.90
40454;DHT22;26160;51.858;4.398;2022-10-16T06:13:11;13.20;99.90
40454;DHT22;26160;51.858;4.398;2022-10-16T06:15:44;13.20;99.90
40454;DHT22;26160;51.858;4.398;2022-10-16T06:23:53;13.20;99.90
40454;DHT22;26160;51.858;4.398;2022-10-16T06:26:41;13.30;99.90
40454;DHT22;26160;51.858;4.398;2022-10-16T06:31:48;13.30;99.90
40454;DHT22;26160;51.858;4.398;2022-10-16T06:34:36;13.30;99.90
40454;DHT22;26160;51.858;4.398;2022-10-16T06:40:01;13.20;99.90
40454;DHT22;26160;51.858;4.398;2022-10-16T06:49:12;13.20;99.90
40454;DHT22;26160;51.858;4.398;2022-10-16T06:52:29;13.20;99.90
40454;DHT22;26160;51.858;4.398;2022-10-16T07:00:11;13.10;99.90
40454;DHT22;26160;51.858;4.398;2022-10-16T07:02:38;13.10;99.90
40454;DHT22;26160;51.858;4.398;2022-10-16T07:05:07;13.10;99.90
40454;DHT22;26160;51.858;4.398;2022-10-16T07:07:47;13.10;99.90
40454;DHT22;26160;51.858;4.398;2022-10-16T07:10:17;13.10;99.90
40454;DHT22;26160;51.858;4.398;2022-10-16T07:12:44;13.10;99.90
40454;DHT22;26160;51.858;4.398;2022-10-16T07:15:20;13.10;99.90
40454;DHT22;26160;51.858;4.398;2022-10-16T07:18:00;13.10;99.90
40454;DHT22;26160;51.858;4.398;2022-10-16T07:20:31;13.10;99.90
40454;DHT22;26160;51.858;4.398;2022-10-16T07:23:05;13.10;99.90
40454;DHT22;26160;51.858;4.398;2022-10-16T07:25:53;13.20;99.90
40454;DHT22;26160;51.858;4.398;2022-10-16T07:28:26;13.20;99.90
40454;DHT22;26160;51.858;4.398;2022-10-16T07:31:28;13.20;99.90
40454;DHT22;26160;51.858;4.398;2022-10-16T07:33:58;13.30;99.90
40454;DHT22;26160;51.858;4.398;2022-10-16T07:39:55;13.30;99.90
40454;DHT22;26160;51.858;4.398;2022-10-16T07:42:26;13.40;99.90
40454;DHT22;26160;51.858;4.398;2022-10-16T07:45:08;13.40;99.90
40454;DHT22;26160;51.858;4.398;2022-10-16T07:47:44;13.50;99.90
40454;DHT22;26160;51.858;4.398;2022-10-16T08:01:29;13.80;99.90
40454;DHT22;26160;51.858;4.398;2022-10-16T08:03:55;13.90;99.90
40454;DHT22;26160;51.858;4.398;2022-10-16T08:11:47;14.10;99.90
40454;DHT22;26160;51.858;4.398;2022-10-16T08:14:22;14.10;99.90
40454;DHT22;26160;51.858;4.398;2022-10-16T08:16:51;14.20;99.90
40454;DHT22;26160;51.858;4.398;2022-10-16T08:19:24;14.30;99.90
40454;DHT22;26160;51.858;4.398;2022-10-16T08:21:55;14.30;99.90
40454;DHT22;26160;51.858;4.398;2022-10-16T08:28:41;14.40;99.90
40454;DHT22;26160;51.858;4.398;2022-10-16T08:31:23;14.50;99.90
40454;DHT22;26160;51.858;4.398;2022-10-16T08:36:23;14.60;99.90
40454;DHT22;26160;51.858;4.398;2022-10-16T08:42:04;14.60;99.90
40454;DHT22;26160;51.858;4.398;2022-10-16T08:57:41;14.90;99.90
40454;DHT22;26160;51.858;4.398;2022-10-16T09:00:21;14.90;99.90
40454;DHT22;26160;51.858;4.398;2022-10-16T09:08:28;15.10;99.90
40454;DHT22;26160;51.858;4.398;2022-10-16T09:14:30;15.20;99.90
40454;DHT22;26160;51.858;4.398;2022-10-16T09:17:39;15.20;99.90
40454;DHT22;26160;51.858;4.398;2022-10-16T09:23:35;15.30;99.90
40454;DHT22;26160;51.858;4.398;2022-10-16T09:26:03;15.30;99.90
40454;DHT22;26160;51.858;4.398;2022-10-16T09:28:31;15.40;99.90
40454;DHT22;26160;51.858;4.398;2022-10-16T09:30:57;15.50;99.90
40454;DHT22;26160;51.858;4.398;2022-10-16T09:33:55;15.50;99.90
40454;DHT22;26160;51.858;4.398;2022-10-16T09:41:41;15.60;99.90
40454;DHT22;26160;51.858;4.398;2022-10-16T09:44:28;15.70;99.90
40454;DHT22;26160;51.858;4.398;2022-10-16T09:47:29;15.80;99.90
40454;DHT22;26160;51.858;4.398;2022-10-16T09:50:25;15.90;99.90
40454;DHT22;26160;51.858;4.398;2022-10-16T09:53:15;16.00;99.90
40454;DHT22;26160;51.858;4.398;2022-10-16T09:55:53;16.20;99.90
40454;DHT22;26160;51.858;4.398;2022-10-16T09:58:23;16.40;99.90
40454;DHT22;26160;51.858;4.398;2022-10-16T10:00:53;16.50;99.90
40454;DHT22;26160;51.858;4.398;2022-10-16T10:03:36;16.70;99.90
40454;DHT22;26160;51.858;4.398;2022-10-16T10:06:16;16.60;99.90
40454;DHT22;26160;51.858;4.398;2022-10-16T10:08:58;16.70;99.90
40454;DHT22;26160;51.858;4.398;2022-10-16T10:11:41;16.90;99.90
40454;DHT22;26160;51.858;4.398;2022-10-16T10:16:47;16.90;99.90
40454;DHT22;26160;51.858;4.398;2022-10-16T10:19:23;17.00;99.90
40454;DHT22;26160;51.858;4.398;2022-10-16T10:21:50;17.00;99.90
40454;DHT22;26160;51.858;4.398;2022-10-16T10:24:18;17.00;99.90
40454;DHT22;26160;51.858;4.398;2022-10-16T10:27:09;17.00;99.90
40454;DHT22;26160;51.858;4.398;2022-10-16T10:29:58;17.20;99.90
40454;DHT22;26160;51.858;4.398;2022-10-16T10:32:53;17.40;99.90
40454;DHT22;26160;51.858;4.398;2022-10-16T10:35:27;17.50;99.90
40454;DHT22;26160;51.858;4.398;2022-10-16T10:38:02;17.70;99.90
40454;DHT22;26160;51.858;4.398;2022-10-16T10:40:51;17.70;99.90
40454;DHT22;26160;51.858;4.398;2022-10-16T10:43:36;17.60;99.90
40454;DHT22;26160;51.858;4.398;2022-10-16T10:46:05;17.70;99.90
40454;DHT22;26160;51.858;4.398;2022-10-16T10:49:39;17.60;99.90
40454;DHT22;26160;51.858;4.398;2022-10-16T10:59:42;17.60;99.90
40454;DHT22;26160;51.858;4.398;2022-10-16T11:04:54;17.90;99.90
40454;DHT22;26160;51.858;4.398;2022-10-16T11:07:52;17.80;99.90
40454;DHT22;26160;51.858;4.398;2022-10-16T11:10:24;17.30;99.90
40454;DHT22;26160;51.858;4.398;2022-10-16T11:13:04;17.10;99.90
40454;DHT22;26160;51.858;4.398;2022-10-16T11:15:37;17.00;99.90
40454;DHT22;26160;51.858;4.398;2022-10-16T11:18:15;17.10;99.90
40454;DHT22;26160;51.858;4.398;2022-10-16T11:20:49;17.40;99.90
40454;DHT22;26160;51.858;4.398;2022-10-16T11:23:28;17.70;99.90
40454;DHT22;26160;51.858;4.398;2022-10-16T11:25:59;18.00;99.90
40454;DHT22;26160;51.858;4.398;2022-10-16T11:28:50;18.00;99.90
40454;DHT22;26160;51.858;4.398;2022-10-16T11:34:30;18.30;99.90
40454;DHT22;26160;51.858;4.398;2022-10-16T11:37:18;18.30;99.90
40454;DHT22;26160;51.858;4.398;2022-10-16T11:39:46;18.40;99.90
40454;DHT22;26160;51.858;4.398;2022-10-16T11:45:03;18.40;99.90
40454;DHT22;26160;51.858;4.398;2022-10-16T11:47:37;18.70;99.90
40454;DHT22;26160;51.858;4.398;2022-10-16T11:52:40;18.60;99.90
40454;DHT22;26160;51.858;4.398;2022-10-16T11:55:22;18.50;99.90
40454;DHT22;26160;51.858;4.398;2022-10-16T11:57:58;18.60;99.90
40454;DHT22;26160;51.858;4.398;2022-10-16T12:00:34;18.70;99.90
40454;DHT22;26160;51.858;4.398;2022-10-16T12:03:29;18.60;99.90
40454;DHT22;26160;51.858;4.398;2022-10-16T12:06:30;18.60;99.90
40454;DHT22;26160;51.858;4.398;2022-10-16T12:08:59;18.60;99.90
40454;DHT22;26160;51.858;4.398;2022-10-16T12:19:42;18.90;99.90
40454;DHT22;26160;51.858;4.398;2022-10-16T12:22:18;18.80;99.90
40454;DHT22;26160;51.858;4.398;2022-10-16T12:24:45;18.80;99.90
40454;DHT22;26160;51.858;4.398;2022-10-16T12:27:29;18.70;99.90
40454;DHT22;26160;51.858;4.398;2022-10-16T12:30:00;18.80;99.90
40454;DHT22;26160;51.858;4.398;2022-10-16T12:34:56;18.70;99.90
40454;DHT22;26160;51.858;4.398;2022-10-16T12:37:29;18.70;99.90
40454;DHT22;26160;51.858;4.398;2022-10-16T12:39:57;18.60;99.90
40454;DHT22;26160;51.858;4.398;2022-10-16T12:44:54;18.40;99.90
40454;DHT22;26160;51.858;4.398;2022-10-16T12:47:36;18.40;99.90
40454;DHT22;26160;51.858;4.398;2022-10-16T12:50:03;18.50;99.90
40454;DHT22;26160;51.858;4.398;2022-10-16T12:52:37;18.40;99.90
40454;DHT22;26160;51.858;4.398;2022-10-16T12:55:05;18.30;99.90
40454;DHT22;26160;51.858;4.398;2022-10-16T13:00:40;18.30;99.90
40454;DHT22;26160;51.858;4.398;2022-10-16T13:09:02;17.90;99.90
40454;DHT22;26160;51.858;4.398;2022-10-16T13:12:13;17.90;99.90
40454;DHT22;26160;51.858;4.398;2022-10-16T13:14:54;17.90;99.90
40454;DHT22;26160;51.858;4.398;2022-10-16T13:28:16;18.10;99.90
40454;DHT22;26160;51.858;4.398;2022-10-16T13:30:51;18.10;99.90
40454;DHT22;26160;51.858;4.398;2022-10-16T13:35:53;18.10;99.90
40454;DHT22;26160;51.858;4.398;2022-10-16T13:38:22;18.20;99.90
40454;DHT22;26160;51.858;4.398;2022-10-16T13:41:00;18.30;99.90
40454;DHT22;26160;51.858;4.398;2022-10-16T13:43:48;18.20;99.90
40454;DHT22;26160;51.858;4.398;2022-10-16T13:46:23;18.30;99.90
40454;DHT22;26160;51.858;4.398;2022-10-16T13:49:16;18.30;99.90
40454;DHT22;26160;51.858;4.398;2022-10-16T13:51:59;18.20;99.90
40454;DHT22;26160;51.858;4.398;2022-10-16T13:54:27;18.30;99.90
40454;DHT22;26160;51.858;4.398;2022-10-16T13:56:55;18.20;99.90
40454;DHT22;26160;51.858;4.398;2022-10-16T13:59:26;18.30;99.90
40454;DHT22;26160;51.858;4.398;2022-10-16T14:01:54;18.30;99.90
40454;DHT22;26160;51.858;4.398;2022-10-16T14:04:21;18.30;99.90
40454;DHT22;26160;51.858;4.398;2022-10-16T14:06:50;18.30;99.90
40454;DHT22;26160;51.858;4.398;2022-10-16T14:09:22;18.20;99.90
40454;DHT22;26160;51.858;4.398;2022-10-16T14:11:54;18.30;99.90
40454;DHT22;26160;51.858;4.398;2022-10-16T14:14:22;18.30;99.90
40454;DHT22;26160;51.858;4.398;2022-10-16T14:16:49;18.40;99.90
40454;DHT22;26160;51.858;4.398;2022-10-16T14:19:22;18.40;99.90
40454;DHT22;26160;51.858;4.398;2022-10-16T14:21:51;18.20;99.90
40454;DHT22;26160;51.858;4.398;2022-10-16T14:24:26;18.30;99.90
40454;DHT22;26160;51.858;4.398;2022-10-16T14:26:53;18.10;99.90
40454;DHT22;26160;51.858;4.398;2022-10-16T14:29:23;18.10;99.90
40454;DHT22;26160;51.858;4.398;2022-10-16T14:32:02;18.00;99.90
40454;DHT22;26160;51.858;4.398;2022-10-16T14:34:33;18.00;99.90
40454;DHT22;26160;51.858;4.398;2022-10-16T14:37:14;18.20;99.90
40454;DHT22;26160;51.858;4.398;2022-10-16T14:39:50;18.00;99.90
40454;DHT22;26160;51.858;4.398;2022-10-16T14:42:18;17.90;99.90
40454;DHT22;26160;51.858;4.398;2022-10-16T14:44:46;17.90;99.90
40454;DHT22;26160;51.858;4.398;2022-10-16T14:47:16;17.80;99.90
40454;DHT22;26160;51.858;4.398;2022-10-16T14:49:42;17.90;99.90
40454;DHT22;26160;51.858;4.398;2022-10-16T14:52:11;17.90;99.90
40454;DHT22;26160;51.858;4.398;2022-10-16T14:54:40;17.80;99.90
40454;DHT22;26160;51.858;4.398;2022-10-16T14:57:19;17.70;99.90
40454;DHT22;26160;51.858;4.398;2022-10-16T14:59:47;17.80;99.90
40454;DHT22;26160;51.858;4.398;2022-10-16T15:04:46;17.80;99.90
40454;DHT22;26160;51.858;4.398;2022-10-16T15:07:15;17.80;99.90
40454;DHT22;26160;51.858;4.398;2022-10-16T15:09:42;17.80;99.90
40454;DHT22;26160;51.858;4.398;2022-10-16T15:12:08;17.80;99.90
40454;DHT22;26160;51.858;4.398;2022-10-16T15:14:34;17.80;99.90
40454;DHT22;26160;51.858;4.398;2022-10-16T15:17:00;17.70;99.90
40454;DHT22;26160;51.858;4.398;2022-10-16T15:19:26;17.70;99.90
40454;DHT22;26160;51.858;4.398;2022-10-16T15:21:53;17.70;99.90
40454;DHT22;26160;51.858;4.398;2022-10-16T15:24:21;17.60;99.90
40454;DHT22;26160;51.858;4.398;2022-10-16T15:26:48;17.60;99.90
40454;DHT22;26160;51.858;4.398;2022-10-16T15:29:15;17.50;99.90
40454;DHT22;26160;51.858;4.398;2022-10-16T15:31:41;17.50;99.90
40454;DHT22;26160;51.858;4.398;2022-10-16T15:34:09;17.40;99.90
40454;DHT22;26160;51.858;4.398;2022-10-16T15:36:37;17.40;99.90
40454;DHT22;26160;51.858;4.398;2022-10-16T15:39:04;17.40;99.90
40454;DHT22;26160;51.858;4.398;2022-10-16T15:41:31;17.30;99.90
40454;DHT22;26160;51.858;4.398;2022-10-16T15:43:57;17.20;99.90
40454;DHT22;26160;51.858;4.398;2022-10-16T15:46:24;17.20;99.90
40454;DHT22;26160;51.858;4.398;2022-10-16T15:48:51;17.10;99.90
40454;DHT22;26160;51.858;4.398;2022-10-16T15:51:21;17.10;99.90
40454;DHT22;26160;51.858;4.398;2022-10-16T15:53:47;17.00;99.90
40454;DHT22;26160;51.858;4.398;2022-10-16T15:56:14;17.00;99.90
40454;DHT22;26160;51.858;4.398;2022-10-16T15:58:42;17.00;99.90
40454;DHT22;26160;51.858;4.398;2022-10-16T16:01:09;16.90;99.90
40454;DHT22;26160;51.858;4.398;2022-10-16T16:03:37;16.90;99.90
40454;DHT22;26160;51.858;4.398;2022-10-16T16:06:07;16.80;99.90
40454;DHT22;26160;51.858;4.398;2022-10-16T16:08:34;16.80;99.90
40454;DHT22;26160;51.858;4.398;2022-10-16T16:11:11;16.70;99.90
40454;DHT22;26160;51.858;4.398;2022-10-16T16:13:38;16.60;99.90
40454;DHT22;26160;51.858;4.398;2022-10-16T16:16:09;16.60;99.90
40454;DHT22;26160;51.858;4.398;2022-10-16T16:18:36;16.60;99.90
40454;DHT22;26160;51.858;4.398;2022-10-16T16:21:03;16.50;99.90
40454;DHT22;26160;51.858;4.398;2022-10-16T16:23:29;16.50;99.90
40454;DHT22;26160;51.858;4.398;2022-10-16T16:28:28;16.40;99.90
40454;DHT22;26160;51.858;4.398;2022-10-16T16:30:54;16.40;99.90
40454;DHT22;26160;51.858;4.398;2022-10-16T16:33:20;16.40;99.90
40454;DHT22;26160;51.858;4.398;2022-10-16T16:35:46;16.30;99.90
40454;DHT22;26160;51.858;4.398;2022-10-16T16:38:13;16.20;99.90
40454;DHT22;26160;51.858;4.398;2022-10-16T16:40:39;16.20;99.90
40454;DHT22;26160;51.858;4.398;2022-10-16T16:43:05;16.20;99.90
40454;DHT22;26160;51.858;4.398;2022-10-16T16:45:35;16.10;99.90
40454;DHT22;26160;51.858;4.398;2022-10-16T16:48:01;16.10;99.90
40454;DHT22;26160;51.858;4.398;2022-10-16T16:50:27;16.00;99.90
40454;DHT22;26160;51.858;4.398;2022-10-16T16:52:53;16.00;99.90
40454;DHT22;26160;51.858;4.398;2022-10-16T16:55:20;16.00;99.90
40454;DHT22;26160;51.858;4.398;2022-10-16T16:57:48;15.90;99.90
40454;DHT22;26160;51.858;4.398;2022-10-16T17:00:14;15.90;99.90
40454;DHT22;26160;51.858;4.398;2022-10-16T17:02:43;15.90;99.90
40454;DHT22;26160;51.858;4.398;2022-10-16T17:05:11;15.80;99.90
40454;DHT22;26160;51.858;4.398;2022-10-16T17:07:37;15.80;99.90
40454;DHT22;26160;51.858;4.398;2022-10-16T17:10:07;15.80;99.90
40454;DHT22;26160;51.858;4.398;2022-10-16T17:12:34;15.80;99.90
40454;DHT22;26160;51.858;4.398;2022-10-16T17:15:00;15.80;99.90
40454;DHT22;26160;51.858;4.398;2022-10-16T17:17:26;15.80;99.90
40454;DHT22;26160;51.858;4.398;2022-10-16T17:19:52;15.80;99.90
40454;DHT22;26160;51.858;4.398;2022-10-16T17:22:19;15.80;99.90
40454;DHT22;26160;51.858;4.398;2022-10-16T17:24:48;15.80;99.90
40454;DHT22;26160;51.858;4.398;2022-10-16T17:27:17;15.70;99.90
40454;DHT22;26160;51.858;4.398;2022-10-16T17:29:45;15.70;99.90
40454;DHT22;26160;51.858;4.398;2022-10-16T17:32:11;15.70;99.90
40454;DHT22;26160;51.858;4.398;2022-10-16T17:34:38;15.70;99.90
40454;DHT22;26160;51.858;4.398;2022-10-16T17:37:06;15.60;99.90
40454;DHT22;26160;51.858;4.398;2022-10-16T17:39:33;15.60;99.90
40454;DHT22;26160;51.858;4.398;2022-10-16T17:42:02;15.60;99.90
40454;DHT22;26160;51.858;4.398;2022-10-16T17:44:31;15.60;99.90
40454;DHT22;26160;51.858;4.398;2022-10-16T17:46:58;15.50;99.90
40454;DHT22;26160;51.858;4.398;2022-10-16T17:49:24;15.60;99.90
40454;DHT22;26160;51.858;4.398;2022-10-16T17:51:51;15.50;99.90
40454;DHT22;26160;51.858;4.398;2022-10-16T17:54:18;15.50;99.90
40454;DHT22;26160;51.858;4.398;2022-10-16T17:56:44;15.50;99.90
40454;DHT22;26160;51.858;4.398;2022-10-16T17:59:12;15.50;99.90
40454;DHT22;26160;51.858;4.398;2022-10-16T18:01:39;15.50;99.90
40454;DHT22;26160;51.858;4.398;2022-10-16T18:04:09;15.50;99.90
40454;DHT22;26160;51.858;4.398;2022-10-16T18:06:39;15.50;99.90
40454;DHT22;26160;51.858;4.398;2022-10-16T18:09:08;15.50;99.90
40454;DHT22;26160;51.858;4.398;2022-10-16T18:11:37;15.50;99.90
40454;DHT22;26160;51.858;4.398;2022-10-16T18:14:04;15.50;99.90
40454;DHT22;26160;51.858;4.398;2022-10-16T18:16:37;15.50;99.90
40454;DHT22;26160;51.858;4.398;2022-10-16T18:19:12;15.40;99.90
40454;DHT22;26160;51.858;4.398;2022-10-16T18:21:38;15.40;99.90
40454;DHT22;26160;51.858;4.398;2022-10-16T18:24:09;15.40;99.90
40454;DHT22;26160;51.858;4.398;2022-10-16T18:26:37;15.40;99.90
40454;DHT22;26160;51.858;4.398;2022-10-16T18:29:20;15.40;99.90
40454;DHT22;26160;51.858;4.398;2022-10-16T18:31:46;15.30;99.90
40454;DHT22;26160;51.858;4.398;2022-10-16T18:34:22;15.30;99.90
40454;DHT22;26160;51.858;4.398;2022-10-16T18:36:49;15.20;99.90
40454;DHT22;26160;51.858;4.398;2022-10-16T18:39:15;15.20;99.90
40454;DHT22;26160;51.858;4.398;2022-10-16T18:41:43;15.20;99.90
40454;DHT22;26160;51.858;4.398;2022-10-16T18:44:11;15.10;99.90
40454;DHT22;26160;51.858;4.398;2022-10-16T18:46:41;15.10;99.90
40454;DHT22;26160;51.858;4.398;2022-10-16T18:52:30;15.00;99.90
40454;DHT22;26160;51.858;4.398;2022-10-16T18:54:58;15.00;99.90
40454;DHT22;26160;51.858;4.398;2022-10-16T18:57:33;14.90;99.90
40454;DHT22;26160;51.858;4.398;2022-10-16T19:00:03;15.00;99.90
40454;DHT22;26160;51.858;4.398;2022-10-16T19:02:58;14.90;99.90
40454;DHT22;26160;51.858;4.398;2022-10-16T19:05:32;14.90;99.90
40454;DHT22;26160;51.858;4.398;2022-10-16T19:08:17;14.90;99.90
40454;DHT22;26160;51.858;4.398;2022-10-16T19:10:49;14.80;99.90
40454;DHT22;26160;51.858;4.398;2022-10-16T19:15:53;14.80;99.90
40454;DHT22;26160;51.858;4.398;2022-10-16T19:18:41;14.80;99.90
40454;DHT22;26160;51.858;4.398;2022-10-16T19:21:15;14.80;99.90
40454;DHT22;26160;51.858;4.398;2022-10-16T19:29:55;14.70;99.90
40454;DHT22;26160;51.858;4.398;2022-10-16T19:38:26;14.70;99.90
40454;DHT22;26160;51.858;4.398;2022-10-16T19:40:54;14.70;99.90
40454;DHT22;26160;51.858;4.398;2022-10-16T19:53:13;14.70;99.90
40454;DHT22;26160;51.858;4.398;2022-10-16T20:02:02;14.60;99.90
40454;DHT22;26160;51.858;4.398;2022-10-16T20:04:36;14.60;99.90